sensor_id;sensor_type;location;lat;lon;timestamp;P1;durP1;ratioP1;P2;durP2;ratioP2
34657;SDS011;20865;43.312;27.152;2022-12-07T00:01:34;12.28;;;5.25;;
34657;SDS011;20865;43.312;27.152;2022-12-07T00:04:00;14.20;;;5.30;;
34657;SDS011;20865;43.312;27.152;2022-12-07T00:06:33;11.05;;;5.17;;
34657;SDS011;20865;43.312;27.152;2022-12-07T00:09:05;13.00;;;5.50;;
34657;SDS011;20865;43.312;27.152;2022-12-07T00:11:35;12.00;;;5.70;;
34657;SDS011;20865;43.312;27.152;2022-12-07T00:14:04;9.43;;;4.85;;
34657;SDS011;20865;43.312;27.152;2022-12-07T00:16:34;25.72;;;4.90;;
34657;SDS011;20865;43.312;27.152;2022-12-07T00:19:02;15.48;;;5.80;;
34657;SDS011;20865;43.312;27.152;2022-12-07T00:21:32;10.80;;;5.65;;
34657;SDS011;20865;43.312;27.152;2022-12-07T00:24:01;10.58;;;4.80;;
34657;SDS011;20865;43.312;27.152;2022-12-07T00:26:31;10.82;;;4.53;;
34657;SDS011;20865;43.312;27.152;2022-12-07T00:29:02;8.75;;;3.90;;
34657;SDS011;20865;43.312;27.152;2022-12-07T00:31:32;8.28;;;4.15;;
34657;SDS011;20865;43.312;27.152;2022-12-07T00:34:03;9.00;;;4.12;;
34657;SDS011;20865;43.312;27.152;2022-12-07T00:36:31;7.47;;;3.70;;
34657;SDS011;20865;43.312;27.152;2022-12-07T00:39:00;6.50;;;3.42;;
34657;SDS011;20865;43.312;27.152;2022-12-07T00:41:28;7.17;;;3.90;;
34657;SDS011;20865;43.312;27.152;2022-12-07T00:43:56;9.30;;;4.22;;
34657;SDS011;20865;43.312;27.152;2022-12-07T00:46:24;7.28;;;3.65;;
34657;SDS011;20865;43.312;27.152;2022-12-07T00:48:52;8.70;;;4.17;;
34657;SDS011;20865;43.312;27.152;2022-12-07T00:51:21;8.75;;;4.12;;
34657;SDS011;20865;43.312;27.152;2022-12-07T00:53:51;7.25;;;3.37;;
34657;SDS011;20865;43.312;27.152;2022-12-07T00:56:23;5.17;;;3.37;;
34657;SDS011;20865;43.312;27.152;2022-12-07T00:58:57;6.37;;;3.35;;
34657;SDS011;20865;43.312;27.152;2022-12-07T01:01:27;8.83;;;3.77;;
34657;SDS011;20865;43.312;27.152;2022-12-07T01:03:57;10.60;;;3.72;;
34657;SDS011;20865;43.312;27.152;2022-12-07T01:06:26;6.28;;;3.47;;
34657;SDS011;20865;43.312;27.152;2022-12-07T01:08:54;7.45;;;3.20;;
34657;SDS011;20865;43.312;27.152;2022-12-07T01:11:23;9.15;;;4.00;;
34657;SDS011;20865;43.312;27.152;2022-12-07T01:13:53;5.55;;;3.58;;
34657;SDS011;20865;43.312;27.152;2022-12-07T01:16:21;7.70;;;4.22;;
34657;SDS011;20865;43.312;27.152;2022-12-07T01:18:52;14.25;;;3.72;;
34657;SDS011;20865;43.312;27.152;2022-12-07T01:21:28;7.50;;;3.58;;
34657;SDS011;20865;43.312;27.152;2022-12-07T01:24:02;11.70;;;4.22;;
34657;SDS011;20865;43.312;27.152;2022-12-07T01:26:31;7.22;;;3.60;;
34657;SDS011;20865;43.312;27.152;2022-12-07T01:28:58;10.18;;;3.87;;
34657;SDS011;20865;43.312;27.152;2022-12-07T01:31:26;5.58;;;2.90;;
34657;SDS011;20865;43.312;27.152;2022-12-07T01:33:55;6.75;;;3.65;;
34657;SDS011;20865;43.312;27.152;2022-12-07T01:36:30;7.22;;;3.65;;
34657;SDS011;20865;43.312;27.152;2022-12-07T01:39:02;11.22;;;3.72;;
34657;SDS011;20865;43.312;27.152;2022-12-07T01:41:27;13.95;;;6.10;;
34657;SDS011;20865;43.312;27.152;2022-12-07T01:46:58;43.85;;;12.88;;
34657;SDS011;20865;43.312;27.152;2022-12-07T01:49:24;19.87;;;8.83;;
34657;SDS011;20865;43.312;27.152;2022-12-07T01:51:56;8.43;;;3.92;;
34657;SDS011;20865;43.312;27.152;2022-12-07T01:54:23;10.10;;;4.45;;
34657;SDS011;20865;43.312;27.152;2022-12-07T01:56:53;8.28;;;3.87;;
34657;SDS011;20865;43.312;27.152;2022-12-07T01:59:23;6.75;;;2.75;;
34657;SDS011;20865;43.312;27.152;2022-12-07T02:01:52;10.28;;;3.98;;
34657;SDS011;20865;43.312;27.152;2022-12-07T02:04:22;8.88;;;4.00;;
34657;SDS011;20865;43.312;27.152;2022-12-07T02:06:50;8.95;;;3.77;;
34657;SDS011;20865;43.312;27.152;2022-12-07T02:09:20;8.28;;;3.98;;
34657;SDS011;20865;43.312;27.152;2022-12-07T02:11:47;9.30;;;3.75;;
34657;SDS011;20865;43.312;27.152;2022-12-07T02:14:16;9.53;;;4.60;;
34657;SDS011;20865;43.312;27.152;2022-12-07T02:16:47;7.62;;;3.58;;
34657;SDS011;20865;43.312;27.152;2022-12-07T02:22:31;9.50;;;3.92;;
34657;SDS011;20865;43.312;27.152;2022-12-07T02:27:57;10.58;;;4.65;;
34657;SDS011;20865;43.312;27.152;2022-12-07T02:30:36;9.23;;;3.85;;
34657;SDS011;20865;43.312;27.152;2022-12-07T02:33:17;8.43;;;3.92;;
34657;SDS011;20865;43.312;27.152;2022-12-07T02:35:43;12.63;;;4.08;;
34657;SDS011;20865;43.312;27.152;2022-12-07T02:40:43;10.53;;;4.58;;
34657;SDS011;20865;43.312;27.152;2022-12-07T02:43:35;8.88;;;4.33;;
34657;SDS011;20865;43.312;27.152;2022-12-07T02:45:45;11.05;;;4.10;;
34657;SDS011;20865;43.312;27.152;2022-12-07T02:48:14;10.08;;;4.45;;
34657;SDS011;20865;43.312;27.152;2022-12-07T02:50:48;10.78;;;4.47;;
34657;SDS011;20865;43.312;27.152;2022-12-07T03:02:45;9.25;;;3.92;;
34657;SDS011;20865;43.312;27.152;2022-12-07T03:10:13;9.13;;;3.80;;
34657;SDS011;20865;43.312;27.152;2022-12-07T03:12:44;8.90;;;3.92;;
34657;SDS011;20865;43.312;27.152;2022-12-07T03:15:25;11.53;;;4.37;;
34657;SDS011;20865;43.312;27.152;2022-12-07T03:17:52;10.75;;;4.22;;
34657;SDS011;20865;43.312;27.152;2022-12-07T03:20:23;9.00;;;4.08;;
34657;SDS011;20865;43.312;27.152;2022-12-07T03:22:53;9.23;;;4.15;;
34657;SDS011;20865;43.312;27.152;2022-12-07T03:25:21;10.25;;;4.20;;
34657;SDS011;20865;43.312;27.152;2022-12-07T03:27:54;7.80;;;3.65;;
34657;SDS011;20865;43.312;27.152;2022-12-07T03:30:24;11.20;;;4.62;;
34657;SDS011;20865;43.312;27.152;2022-12-07T03:32:59;9.68;;;4.42;;
34657;SDS011;20865;43.312;27.152;2022-12-07T03:38:17;9.75;;;3.35;;
34657;SDS011;20865;43.312;27.152;2022-12-07T03:40:50;7.40;;;3.40;;
34657;SDS011;20865;43.312;27.152;2022-12-07T03:43:19;11.12;;;4.70;;
34657;SDS011;20865;43.312;27.152;2022-12-07T03:46:00;10.13;;;4.05;;
34657;SDS011;20865;43.312;27.152;2022-12-07T03:48:44;10.32;;;4.53;;
34657;SDS011;20865;43.312;27.152;2022-12-07T03:54:24;15.15;;;6.03;;
34657;SDS011;20865;43.312;27.152;2022-12-07T03:56:53;15.08;;;5.62;;
34657;SDS011;20865;43.312;27.152;2022-12-07T03:59:22;14.60;;;5.72;;
34657;SDS011;20865;43.312;27.152;2022-12-07T04:01:55;18.48;;;6.15;;
34657;SDS011;20865;43.312;27.152;2022-12-07T04:04:25;14.07;;;6.30;;
34657;SDS011;20865;43.312;27.152;2022-12-07T04:06:52;12.65;;;5.55;;
34657;SDS011;20865;43.312;27.152;2022-12-07T04:09:20;16.27;;;5.92;;
34657;SDS011;20865;43.312;27.152;2022-12-07T04:11:48;18.52;;;6.97;;
34657;SDS011;20865;43.312;27.152;2022-12-07T04:14:16;18.65;;;6.37;;
34657;SDS011;20865;43.312;27.152;2022-12-07T04:16:50;13.18;;;5.37;;
34657;SDS011;20865;43.312;27.152;2022-12-07T04:19:20;13.13;;;5.35;;
34657;SDS011;20865;43.312;27.152;2022-12-07T04:21:49;10.40;;;5.03;;
34657;SDS011;20865;43.312;27.152;2022-12-07T04:24:17;11.95;;;5.90;;
34657;SDS011;20865;43.312;27.152;2022-12-07T04:26:45;15.08;;;6.15;;
34657;SDS011;20865;43.312;27.152;2022-12-07T04:29:13;18.65;;;6.55;;
34657;SDS011;20865;43.312;27.152;2022-12-07T04:31:41;15.85;;;6.15;;
34657;SDS011;20865;43.312;27.152;2022-12-07T04:34:10;15.40;;;5.95;;
34657;SDS011;20865;43.312;27.152;2022-12-07T04:36:39;15.70;;;6.80;;
34657;SDS011;20865;43.312;27.152;2022-12-07T04:39:07;15.98;;;6.03;;
34657;SDS011;20865;43.312;27.152;2022-12-07T04:41:37;11.85;;;5.35;;
34657;SDS011;20865;43.312;27.152;2022-12-07T04:44:04;14.15;;;6.65;;
34657;SDS011;20865;43.312;27.152;2022-12-07T04:46:33;18.17;;;6.60;;
34657;SDS011;20865;43.312;27.152;2022-12-07T04:49:00;12.43;;;5.47;;
34657;SDS011;20865;43.312;27.152;2022-12-07T04:51:28;13.13;;;5.85;;
34657;SDS011;20865;43.312;27.152;2022-12-07T04:53:56;16.20;;;5.85;;
34657;SDS011;20865;43.312;27.152;2022-12-07T04:56:24;16.10;;;6.00;;
34657;SDS011;20865;43.312;27.152;2022-12-07T04:58:53;16.45;;;6.42;;
34657;SDS011;20865;43.312;27.152;2022-12-07T05:01:21;13.98;;;5.95;;
34657;SDS011;20865;43.312;27.152;2022-12-07T05:03:49;18.67;;;6.75;;
34657;SDS011;20865;43.312;27.152;2022-12-07T05:06:17;15.95;;;6.35;;
34657;SDS011;20865;43.312;27.152;2022-12-07T05:08:45;14.38;;;6.00;;
34657;SDS011;20865;43.312;27.152;2022-12-07T05:11:13;18.10;;;5.85;;
34657;SDS011;20865;43.312;27.152;2022-12-07T05:14:00;13.45;;;5.62;;
34657;SDS011;20865;43.312;27.152;2022-12-07T05:16:29;11.88;;;4.97;;
34657;SDS011;20865;43.312;27.152;2022-12-07T05:18:56;19.90;;;6.10;;
34657;SDS011;20865;43.312;27.152;2022-12-07T05:21:24;14.78;;;6.67;;
34657;SDS011;20865;43.312;27.152;2022-12-07T05:23:52;14.75;;;5.95;;
34657;SDS011;20865;43.312;27.152;2022-12-07T05:26:20;16.07;;;6.35;;
34657;SDS011;20865;43.312;27.152;2022-12-07T05:28:51;19.50;;;7.30;;
34657;SDS011;20865;43.312;27.152;2022-12-07T05:31:23;14.93;;;7.00;;
34657;SDS011;20865;43.312;27.152;2022-12-07T05:33:52;22.13;;;6.40;;
34657;SDS011;20865;43.312;27.152;2022-12-07T05:36:20;19.27;;;6.95;;
34657;SDS011;20865;43.312;27.152;2022-12-07T05:38:48;14.83;;;6.12;;
34657;SDS011;20865;43.312;27.152;2022-12-07T05:41:16;16.95;;;6.97;;
34657;SDS011;20865;43.312;27.152;2022-12-07T05:44:03;22.13;;;8.18;;
34657;SDS011;20865;43.312;27.152;2022-12-07T05:46:31;18.70;;;6.72;;
34657;SDS011;20865;43.312;27.152;2022-12-07T05:48:59;14.13;;;6.42;;
34657;SDS011;20865;43.312;27.152;2022-12-07T05:51:27;26.07;;;13.35;;
34657;SDS011;20865;43.312;27.152;2022-12-07T05:53:55;36.05;;;12.25;;
34657;SDS011;20865;43.312;27.152;2022-12-07T05:56:22;36.60;;;15.15;;
34657;SDS011;20865;43.312;27.152;2022-12-07T05:58:50;39.63;;;17.92;;
34657;SDS011;20865;43.312;27.152;2022-12-07T06:01:35;40.28;;;17.30;;
34657;SDS011;20865;43.312;27.152;2022-12-07T06:04:03;48.55;;;19.20;;
34657;SDS011;20865;43.312;27.152;2022-12-07T06:06:31;53.60;;;20.30;;
34657;SDS011;20865;43.312;27.152;2022-12-07T06:08:58;72.08;;;32.13;;
34657;SDS011;20865;43.312;27.152;2022-12-07T06:11:26;120.02;;;50.58;;
34657;SDS011;20865;43.312;27.152;2022-12-07T06:14:11;150.80;;;64.75;;
34657;SDS011;20865;43.312;27.152;2022-12-07T06:16:39;112.75;;;52.78;;
34657;SDS011;20865;43.312;27.152;2022-12-07T06:19:07;130.60;;;63.68;;
34657;SDS011;20865;43.312;27.152;2022-12-07T06:21:35;48.60;;;23.57;;
34657;SDS011;20865;43.312;27.152;2022-12-07T06:24:02;30.72;;;12.00;;
34657;SDS011;20865;43.312;27.152;2022-12-07T06:26:30;21.23;;;8.75;;
34657;SDS011;20865;43.312;27.152;2022-12-07T06:28:58;17.55;;;7.80;;
34657;SDS011;20865;43.312;27.152;2022-12-07T06:31:25;20.60;;;7.12;;
34657;SDS011;20865;43.312;27.152;2022-12-07T06:33:57;20.77;;;7.25;;
34657;SDS011;20865;43.312;27.152;2022-12-07T06:36:26;16.67;;;7.42;;
34657;SDS011;20865;43.312;27.152;2022-12-07T06:38:54;18.95;;;8.25;;
34657;SDS011;20865;43.312;27.152;2022-12-07T06:41:22;22.87;;;9.23;;
34657;SDS011;20865;43.312;27.152;2022-12-07T06:43:50;23.57;;;8.78;;
34657;SDS011;20865;43.312;27.152;2022-12-07T06:46:18;20.15;;;9.10;;
34657;SDS011;20865;43.312;27.152;2022-12-07T06:48:46;19.40;;;8.55;;
34657;SDS011;20865;43.312;27.152;2022-12-07T06:51:13;21.87;;;8.70;;
34657;SDS011;20865;43.312;27.152;2022-12-07T06:53:41;18.40;;;8.43;;
34657;SDS011;20865;43.312;27.152;2022-12-07T06:56:08;21.40;;;10.32;;
34657;SDS011;20865;43.312;27.152;2022-12-07T06:58:36;23.83;;;9.33;;
34657;SDS011;20865;43.312;27.152;2022-12-07T07:01:08;16.52;;;7.72;;
34657;SDS011;20865;43.312;27.152;2022-12-07T07:03:36;23.60;;;8.05;;
34657;SDS011;20865;43.312;27.152;2022-12-07T07:06:04;25.57;;;8.50;;
34657;SDS011;20865;43.312;27.152;2022-12-07T07:08:35;22.20;;;11.63;;
34657;SDS011;20865;43.312;27.152;2022-12-07T07:11:03;24.98;;;11.70;;
34657;SDS011;20865;43.312;27.152;2022-12-07T07:13:31;26.02;;;12.30;;
34657;SDS011;20865;43.312;27.152;2022-12-07T07:15:59;27.32;;;11.65;;
34657;SDS011;20865;43.312;27.152;2022-12-07T07:18:27;31.00;;;12.60;;
34657;SDS011;20865;43.312;27.152;2022-12-07T07:20:55;26.55;;;11.28;;
34657;SDS011;20865;43.312;27.152;2022-12-07T07:23:23;34.38;;;11.48;;
34657;SDS011;20865;43.312;27.152;2022-12-07T07:25:51;88.17;;;26.65;;
34657;SDS011;20865;43.312;27.152;2022-12-07T07:28:19;87.25;;;27.93;;
34657;SDS011;20865;43.312;27.152;2022-12-07T07:30:46;73.33;;;22.58;;
34657;SDS011;20865;43.312;27.152;2022-12-07T07:33:14;32.40;;;10.43;;
34657;SDS011;20865;43.312;27.152;2022-12-07T07:35:42;16.57;;;7.70;;
34657;SDS011;20865;43.312;27.152;2022-12-07T07:38:09;18.52;;;7.87;;
34657;SDS011;20865;43.312;27.152;2022-12-07T07:40:37;19.02;;;7.53;;
34657;SDS011;20865;43.312;27.152;2022-12-07T07:43:04;19.52;;;7.72;;
34657;SDS011;20865;43.312;27.152;2022-12-07T07:45:32;17.52;;;7.03;;
34657;SDS011;20865;43.312;27.152;2022-12-07T07:48:00;19.30;;;7.53;;
34657;SDS011;20865;43.312;27.152;2022-12-07T07:50:27;18.50;;;8.18;;
34657;SDS011;20865;43.312;27.152;2022-12-07T07:52:56;23.40;;;7.95;;
34657;SDS011;20865;43.312;27.152;2022-12-07T07:55:24;18.60;;;7.03;;
34657;SDS011;20865;43.312;27.152;2022-12-07T07:57:51;20.02;;;7.90;;
34657;SDS011;20865;43.312;27.152;2022-12-07T08:00:21;22.35;;;8.58;;
34657;SDS011;20865;43.312;27.152;2022-12-07T08:02:48;19.35;;;7.80;;
34657;SDS011;20865;43.312;27.152;2022-12-07T08:05:16;17.23;;;7.35;;
34657;SDS011;20865;43.312;27.152;2022-12-07T08:07:44;22.52;;;7.20;;
34657;SDS011;20865;43.312;27.152;2022-12-07T08:10:12;29.48;;;12.03;;
34657;SDS011;20865;43.312;27.152;2022-12-07T08:12:41;21.70;;;9.45;;
34657;SDS011;20865;43.312;27.152;2022-12-07T08:15:28;28.60;;;11.40;;
34657;SDS011;20865;43.312;27.152;2022-12-07T08:17:57;21.62;;;8.95;;
34657;SDS011;20865;43.312;27.152;2022-12-07T08:20:25;39.70;;;14.28;;
34657;SDS011;20865;43.312;27.152;2022-12-07T08:22:53;22.77;;;9.58;;
34657;SDS011;20865;43.312;27.152;2022-12-07T08:25:21;19.23;;;8.55;;
34657;SDS011;20865;43.312;27.152;2022-12-07T08:27:48;18.12;;;7.92;;
34657;SDS011;20865;43.312;27.152;2022-12-07T08:30:17;23.90;;;8.48;;
34657;SDS011;20865;43.312;27.152;2022-12-07T08:32:45;15.75;;;7.67;;
34657;SDS011;20865;43.312;27.152;2022-12-07T08:35:13;19.52;;;8.53;;
34657;SDS011;20865;43.312;27.152;2022-12-07T08:37:42;20.92;;;7.58;;
34657;SDS011;20865;43.312;27.152;2022-12-07T08:40:11;21.17;;;7.67;;
34657;SDS011;20865;43.312;27.152;2022-12-07T08:42:48;19.85;;;8.73;;
34657;SDS011;20865;43.312;27.152;2022-12-07T08:45:17;24.87;;;10.55;;
34657;SDS011;20865;43.312;27.152;2022-12-07T08:47:48;19.40;;;9.25;;
34657;SDS011;20865;43.312;27.152;2022-12-07T08:50:19;19.62;;;8.48;;
34657;SDS011;20865;43.312;27.152;2022-12-07T08:52:51;22.60;;;9.08;;
34657;SDS011;20865;43.312;27.152;2022-12-07T08:55:21;23.62;;;10.40;;
34657;SDS011;20865;43.312;27.152;2022-12-07T08:57:49;24.80;;;8.68;;
34657;SDS011;20865;43.312;27.152;2022-12-07T09:00:18;20.90;;;8.45;;
34657;SDS011;20865;43.312;27.152;2022-12-07T09:02:46;19.23;;;8.13;;
34657;SDS011;20865;43.312;27.152;2022-12-07T09:05:14;19.60;;;7.42;;
34657;SDS011;20865;43.312;27.152;2022-12-07T09:07:42;22.22;;;7.95;;
34657;SDS011;20865;43.312;27.152;2022-12-07T09:10:11;27.42;;;9.75;;
34657;SDS011;20865;43.312;27.152;2022-12-07T09:12:39;23.30;;;8.85;;
34657;SDS011;20865;43.312;27.152;2022-12-07T09:15:07;26.17;;;8.60;;
34657;SDS011;20865;43.312;27.152;2022-12-07T09:17:35;30.30;;;11.55;;
34657;SDS011;20865;43.312;27.152;2022-12-07T09:20:04;23.32;;;9.60;;
34657;SDS011;20865;43.312;27.152;2022-12-07T09:22:32;20.57;;;8.18;;
34657;SDS011;20865;43.312;27.152;2022-12-07T09:25:01;23.47;;;8.90;;
34657;SDS011;20865;43.312;27.152;2022-12-07T09:27:29;26.65;;;8.85;;
34657;SDS011;20865;43.312;27.152;2022-12-07T09:29:58;18.90;;;8.78;;
34657;SDS011;20865;43.312;27.152;2022-12-07T09:32:25;27.82;;;10.10;;
34657;SDS011;20865;43.312;27.152;2022-12-07T09:34:53;27.52;;;10.25;;
34657;SDS011;20865;43.312;27.152;2022-12-07T09:37:21;50.17;;;24.07;;
34657;SDS011;20865;43.312;27.152;2022-12-07T09:39:49;24.10;;;10.55;;
34657;SDS011;20865;43.312;27.152;2022-12-07T09:45:06;19.62;;;9.80;;
34657;SDS011;20865;43.312;27.152;2022-12-07T09:47:35;24.87;;;10.48;;
34657;SDS011;20865;43.312;27.152;2022-12-07T09:50:04;27.62;;;10.65;;
34657;SDS011;20865;43.312;27.152;2022-12-07T09:52:34;58.83;;;22.87;;
34657;SDS011;20865;43.312;27.152;2022-12-07T09:55:02;46.85;;;15.80;;
34657;SDS011;20865;43.312;27.152;2022-12-07T09:57:32;27.87;;;12.15;;
34657;SDS011;20865;43.312;27.152;2022-12-07T10:00:13;37.65;;;13.58;;
34657;SDS011;20865;43.312;27.152;2022-12-07T10:03:01;33.67;;;13.48;;
34657;SDS011;20865;43.312;27.152;2022-12-07T10:05:30;29.32;;;10.28;;
34657;SDS011;20865;43.312;27.152;2022-12-07T10:08:03;32.60;;;12.20;;
34657;SDS011;20865;43.312;27.152;2022-12-07T10:10:32;38.23;;;15.00;;
34657;SDS011;20865;43.312;27.152;2022-12-07T10:13:07;32.35;;;12.07;;
34657;SDS011;20865;43.312;27.152;2022-12-07T10:18:25;29.30;;;12.35;;
34657;SDS011;20865;43.312;27.152;2022-12-07T10:21:10;36.25;;;14.30;;
34657;SDS011;20865;43.312;27.152;2022-12-07T10:23:41;32.95;;;13.80;;
34657;SDS011;20865;43.312;27.152;2022-12-07T10:26:21;23.32;;;10.98;;
34657;SDS011;20865;43.312;27.152;2022-12-07T10:28:58;31.12;;;12.93;;
34657;SDS011;20865;43.312;27.152;2022-12-07T10:31:26;69.30;;;28.75;;
34657;SDS011;20865;43.312;27.152;2022-12-07T10:33:58;46.85;;;16.12;;
34657;SDS011;20865;43.312;27.152;2022-12-07T10:36:37;32.80;;;11.45;;
34657;SDS011;20865;43.312;27.152;2022-12-07T10:39:12;25.32;;;11.28;;
34657;SDS011;20865;43.312;27.152;2022-12-07T10:41:55;41.10;;;15.78;;
34657;SDS011;20865;43.312;27.152;2022-12-07T10:44:25;39.05;;;14.25;;
34657;SDS011;20865;43.312;27.152;2022-12-07T10:47:00;28.52;;;9.98;;
34657;SDS011;20865;43.312;27.152;2022-12-07T10:55:16;30.08;;;11.63;;
34657;SDS011;20865;43.312;27.152;2022-12-07T11:00:49;37.58;;;15.40;;
34657;SDS011;20865;43.312;27.152;2022-12-07T11:05:46;24.95;;;9.60;;
34657;SDS011;20865;43.312;27.152;2022-12-07T11:16:22;26.27;;;11.93;;
34657;SDS011;20865;43.312;27.152;2022-12-07T11:21:56;37.08;;;13.30;;
34657;SDS011;20865;43.312;27.152;2022-12-07T11:24:32;33.28;;;13.72;;
34657;SDS011;20865;43.312;27.152;2022-12-07T11:27:19;34.18;;;15.68;;
34657;SDS011;20865;43.312;27.152;2022-12-07T11:38:24;26.57;;;9.80;;
34657;SDS011;20865;43.312;27.152;2022-12-07T11:40:53;39.15;;;15.15;;
34657;SDS011;20865;43.312;27.152;2022-12-07T11:43:28;72.80;;;30.97;;
34657;SDS011;20865;43.312;27.152;2022-12-07T11:45:59;65.30;;;28.10;;
34657;SDS011;20865;43.312;27.152;2022-12-07T11:48:47;29.02;;;11.95;;
34657;SDS011;20865;43.312;27.152;2022-12-07T11:51:29;28.77;;;10.77;;
34657;SDS011;20865;43.312;27.152;2022-12-07T11:54:03;29.05;;;11.15;;
34657;SDS011;20865;43.312;27.152;2022-12-07T11:56:38;25.62;;;9.55;;
34657;SDS011;20865;43.312;27.152;2022-12-07T11:59:20;22.52;;;8.03;;
34657;SDS011;20865;43.312;27.152;2022-12-07T12:01:51;26.42;;;12.43;;
34657;SDS011;20865;43.312;27.152;2022-12-07T12:04:29;30.08;;;10.18;;
34657;SDS011;20865;43.312;27.152;2022-12-07T12:07:10;37.10;;;12.93;;
34657;SDS011;20865;43.312;27.152;2022-12-07T12:10:24;31.65;;;12.05;;
34657;SDS011;20865;43.312;27.152;2022-12-07T12:12:36;27.70;;;12.37;;
34657;SDS011;20865;43.312;27.152;2022-12-07T12:15:23;28.92;;;11.05;;
34657;SDS011;20865;43.312;27.152;2022-12-07T12:18:27;35.28;;;16.20;;
34657;SDS011;20865;43.312;27.152;2022-12-07T12:21:08;41.77;;;16.05;;
34657;SDS011;20865;43.312;27.152;2022-12-07T12:23:41;42.10;;;16.35;;
34657;SDS011;20865;43.312;27.152;2022-12-07T12:26:18;74.35;;;29.85;;
34657;SDS011;20865;43.312;27.152;2022-12-07T12:29:00;48.13;;;20.02;;
34657;SDS011;20865;43.312;27.152;2022-12-07T12:31:41;42.57;;;16.63;;
34657;SDS011;20865;43.312;27.152;2022-12-07T12:36:57;28.47;;;12.75;;
34657;SDS011;20865;43.312;27.152;2022-12-07T12:39:25;51.90;;;21.05;;
34657;SDS011;20865;43.312;27.152;2022-12-07T12:41:54;31.42;;;11.83;;
34657;SDS011;20865;43.312;27.152;2022-12-07T12:47:02;27.73;;;12.58;;
34657;SDS011;20865;43.312;27.152;2022-12-07T12:49:33;46.33;;;15.95;;
34657;SDS011;20865;43.312;27.152;2022-12-07T12:57:30;29.70;;;11.60;;
34657;SDS011;20865;43.312;27.152;2022-12-07T12:59:58;34.23;;;12.58;;
34657;SDS011;20865;43.312;27.152;2022-12-07T13:02:33;36.83;;;11.65;;
34657;SDS011;20865;43.312;27.152;2022-12-07T13:15:44;41.40;;;15.03;;
34657;SDS011;20865;43.312;27.152;2022-12-07T13:21:01;31.65;;;11.65;;
34657;SDS011;20865;43.312;27.152;2022-12-07T13:23:38;35.20;;;15.88;;
34657;SDS011;20865;43.312;27.152;2022-12-07T13:26:18;47.33;;;14.18;;
34657;SDS011;20865;43.312;27.152;2022-12-07T13:28:48;41.53;;;14.03;;
34657;SDS011;20865;43.312;27.152;2022-12-07T13:31:31;42.08;;;16.00;;
34657;SDS011;20865;43.312;27.152;2022-12-07T13:34:01;43.95;;;21.12;;
34657;SDS011;20865;43.312;27.152;2022-12-07T13:36:38;32.25;;;12.30;;
34657;SDS011;20865;43.312;27.152;2022-12-07T13:41:49;37.60;;;13.72;;
34657;SDS011;20865;43.312;27.152;2022-12-07T13:44:19;25.35;;;11.78;;
34657;SDS011;20865;43.312;27.152;2022-12-07T13:49:19;28.60;;;12.00;;
34657;SDS011;20865;43.312;27.152;2022-12-07T13:51:50;33.98;;;13.32;;
34657;SDS011;20865;43.312;27.152;2022-12-07T13:54:19;37.45;;;14.87;;
34657;SDS011;20865;43.312;27.152;2022-12-07T13:56:51;41.18;;;16.07;;
34657;SDS011;20865;43.312;27.152;2022-12-07T13:59:23;41.37;;;17.12;;
34657;SDS011;20865;43.312;27.152;2022-12-07T14:01:52;58.95;;;20.48;;
34657;SDS011;20865;43.312;27.152;2022-12-07T14:04:34;52.30;;;22.30;;
34657;SDS011;20865;43.312;27.152;2022-12-07T14:07:23;65.35;;;24.40;;
34657;SDS011;20865;43.312;27.152;2022-12-07T14:09:56;47.23;;;22.52;;
34657;SDS011;20865;43.312;27.152;2022-12-07T14:12:29;53.58;;;23.62;;
34657;SDS011;20865;43.312;27.152;2022-12-07T14:14:58;45.35;;;20.23;;
34657;SDS011;20865;43.312;27.152;2022-12-07T14:17:27;46.98;;;18.48;;
34657;SDS011;20865;43.312;27.152;2022-12-07T14:19:56;40.83;;;16.12;;
34657;SDS011;20865;43.312;27.152;2022-12-07T14:25:01;49.85;;;20.82;;
34657;SDS011;20865;43.312;27.152;2022-12-07T14:27:31;116.25;;;43.42;;
34657;SDS011;20865;43.312;27.152;2022-12-07T14:30:02;115.57;;;47.03;;
34657;SDS011;20865;43.312;27.152;2022-12-07T14:32:31;105.12;;;41.30;;
34657;SDS011;20865;43.312;27.152;2022-12-07T14:35:01;77.62;;;33.25;;
34657;SDS011;20865;43.312;27.152;2022-12-07T14:37:30;81.87;;;33.20;;
34657;SDS011;20865;43.312;27.152;2022-12-07T14:39:58;92.92;;;36.83;;
34657;SDS011;20865;43.312;27.152;2022-12-07T14:42:27;62.43;;;26.07;;
34657;SDS011;20865;43.312;27.152;2022-12-07T14:44:56;47.75;;;19.10;;
34657;SDS011;20865;43.312;27.152;2022-12-07T14:47:25;49.75;;;20.12;;
34657;SDS011;20865;43.312;27.152;2022-12-07T14:49:53;44.67;;;19.85;;
34657;SDS011;20865;43.312;27.152;2022-12-07T14:52:21;41.63;;;16.90;;
34657;SDS011;20865;43.312;27.152;2022-12-07T14:54:51;39.95;;;16.15;;
34657;SDS011;20865;43.312;27.152;2022-12-07T14:57:18;28.75;;;14.25;;
34657;SDS011;20865;43.312;27.152;2022-12-07T14:59:46;41.15;;;15.83;;
34657;SDS011;20865;43.312;27.152;2022-12-07T15:02:14;47.62;;;17.50;;
34657;SDS011;20865;43.312;27.152;2022-12-07T15:04:43;32.35;;;13.58;;
34657;SDS011;20865;43.312;27.152;2022-12-07T15:07:20;35.17;;;13.43;;
34657;SDS011;20865;43.312;27.152;2022-12-07T15:09:49;33.63;;;13.78;;
34657;SDS011;20865;43.312;27.152;2022-12-07T15:12:16;45.50;;;17.48;;
34657;SDS011;20865;43.312;27.152;2022-12-07T15:14:44;49.35;;;16.48;;
34657;SDS011;20865;43.312;27.152;2022-12-07T15:17:12;33.18;;;13.60;;
34657;SDS011;20865;43.312;27.152;2022-12-07T15:19:39;38.63;;;15.05;;
34657;SDS011;20865;43.312;27.152;2022-12-07T15:22:07;25.35;;;11.73;;
34657;SDS011;20865;43.312;27.152;2022-12-07T15:24:36;32.25;;;12.20;;
34657;SDS011;20865;43.312;27.152;2022-12-07T15:27:04;29.70;;;11.95;;
34657;SDS011;20865;43.312;27.152;2022-12-07T15:29:32;29.98;;;11.88;;
34657;SDS011;20865;43.312;27.152;2022-12-07T15:31:59;34.27;;;11.65;;
34657;SDS011;20865;43.312;27.152;2022-12-07T15:34:27;31.33;;;13.30;;
34657;SDS011;20865;43.312;27.152;2022-12-07T15:36:57;29.27;;;11.93;;
34657;SDS011;20865;43.312;27.152;2022-12-07T15:39:24;27.52;;;10.63;;
34657;SDS011;20865;43.312;27.152;2022-12-07T15:41:52;39.95;;;15.43;;
34657;SDS011;20865;43.312;27.152;2022-12-07T15:44:19;37.78;;;15.53;;
34657;SDS011;20865;43.312;27.152;2022-12-07T15:47:05;27.67;;;13.48;;
34657;SDS011;20865;43.312;27.152;2022-12-07T15:49:33;32.25;;;13.45;;
34657;SDS011;20865;43.312;27.152;2022-12-07T15:52:00;29.65;;;13.35;;
34657;SDS011;20865;43.312;27.152;2022-12-07T15:54:28;32.05;;;13.30;;
34657;SDS011;20865;43.312;27.152;2022-12-07T15:56:57;27.32;;;11.48;;
34657;SDS011;20865;43.312;27.152;2022-12-07T15:59:26;22.37;;;10.80;;
34657;SDS011;20865;43.312;27.152;2022-12-07T16:01:54;21.90;;;9.98;;
34657;SDS011;20865;43.312;27.152;2022-12-07T16:04:22;31.30;;;12.78;;
34657;SDS011;20865;43.312;27.152;2022-12-07T16:06:50;29.40;;;11.33;;
34657;SDS011;20865;43.312;27.152;2022-12-07T16:09:18;22.42;;;10.95;;
34657;SDS011;20865;43.312;27.152;2022-12-07T16:11:46;39.65;;;12.45;;
34657;SDS011;20865;43.312;27.152;2022-12-07T16:14:15;26.35;;;11.08;;
34657;SDS011;20865;43.312;27.152;2022-12-07T16:16:43;31.20;;;11.28;;